Time,TemperatureF,DewpointF,PressureIn,WindDirection,WindDirectionDegrees,WindSpeedMPH,WindSpeedGustMPH,Humidity,HourlyPrecipIn,Conditions,Clouds,dailyrainin,SoftwareType,DateUTC
2013-04-15 00:12:00,31.8,29.0,30.23,WNW,299,0.0,0.0,89,0.00,,,0.00,weatherlink.com 1.10,2013-04-15 04:12:00,
2013-04-15 00:27:00,31.6,29.0,30.23,WNW,300,0.0,1.0,89,0.00,,,0.00,weatherlink.com 1.10,2013-04-15 04:27:00,
2013-04-15 00:42:00,31.6,29.0,30.23,WNW,299,0.0,1.0,89,0.00,,,0.00,weatherlink.com 1.10,2013-04-15 04:42:00,
2013-04-15 00:57:00,31.4,29.0,30.23,WNW,299,1.0,1.0,90,0.00,,,0.00,weatherlink.com 1.10,2013-04-15 04:57:00,
2013-04-15 01:12:00,32.1,29.0,30.24,NE,56,0.0,1.0,89,0.00,,,0.00,weatherlink.com 1.10,2013-04-15 05:12:00,
2013-04-15 01:27:00,32.2,29.0,30.24,NW,326,0.0,1.0,87,0.00,,,0.00,weatherlink.com 1.10,2013-04-15 05:27:00,
2013-04-15 01:42:00,31.6,29.0,30.24,WSW,250,0.0,1.0,88,0.00,,,0.00,weatherlink.com 1.10,2013-04-15 05:42:00,
2013-04-15 01:57:00,33.8,30.0,30.24,NW,321,0.0,3.0,84,0.00,,,0.00,weatherlink.com 1.10,2013-04-15 05:57:00,
2013-04-15 02:12:00,34.5,30.0,30.24,South,181,0.0,2.0,82,0.00,,,0.00,weatherlink.com 1.10,2013-04-15 06:12:00,
2013-04-15 02:27:00,33.5,29.0,30.25,ENE,69,0.0,1.0,84,0.00,,,0.00,weatherlink.com 1.10,2013-04-15 06:27:00,
2013-04-15 02:42:00,32.5,29.0,30.24,East,89,0.0,1.0,86,0.00,,,0.00,weatherlink.com 1.10,2013-04-15 06:42:00,
2013-04-15 02:57:00,32.0,29.0,30.24,East,89,0.0,1.0,87,0.00,,,0.00,weatherlink.com 1.10,2013-04-15 06:57:00,
2013-04-15 03:43:00,30.9,28.0,30.25,East,89,0.0,0.0,90,0.00,,,0.00,weatherlink.com 1.10,2013-04-15 07:43:00,
2013-04-15 03:58:00,30.5,28.0,30.26,East,89,0.0,0.0,90,0.00,,,0.00,weatherlink.com 1.10,2013-04-15 07:58:00,
2013-04-15 04:13:00,30.8,28.0,30.27,East,89,0.0,0.0,90,0.00,,,0.00,weatherlink.com 1.10,2013-04-15 08:13:00,
2013-04-15 04:28:00,29.8,27.0,30.27,East,89,0.0,0.0,90,0.00,,,0.00,weatherlink.com 1.10,2013-04-15 08:28:00,
2013-04-15 04:43:00,29.5,27.0,30.28,East,89,0.0,0.0,91,0.00,,,0.00,weatherlink.com 1.10,2013-04-15 08:43:00,
2013-04-15 04:58:00,29.1,27.0,30.29,East,89,0.0,0.0,91,0.00,,,0.00,weatherlink.com 1.10,2013-04-15 08:58:00,
2013-04-15 05:13:00,28.5,27.0,30.29,East,89,0.0,0.0,92,0.00,,,0.00,weatherlink.com 1.10,2013-04-15 09:13:00,
2013-04-15 05:28:00,28.2,26.0,30.30,East,89,0.0,0.0,92,0.00,,,0.00,weatherlink.com 1.10,2013-04-15 09:28:00,
2013-04-15 05:43:00,28.1,26.0,30.30,East,89,0.0,0.0,93,0.00,,,0.00,weatherlink.com 1.10,2013-04-15 09:43:00,
2013-04-15 05:58:00,27.7,26.0,30.31,East,89,0.0,0.0,93,0.00,,,0.00,weatherlink.com 1.10,2013-04-15 09:58:00,
2013-04-15 06:13:00,27.7,26.0,30.32,East,89,0.0,0.0,93,0.00,,,0.00,weatherlink.com 1.10,2013-04-15 10:13:00,
2013-04-15 06:28:00,27.7,26.0,30.33,East,89,0.0,0.0,93,0.00,,,0.00,weatherlink.com 1.10,2013-04-15 10:28:00,
2013-04-15 06:43:00,27.7,26.0,30.34,East,89,0.0,0.0,94,0.00,,,0.00,weatherlink.com 1.10,2013-04-15 10:43:00,
2013-04-15 06:58:00,28.7,27.0,30.34,East,89,0.0,0.0,94,0.00,,,0.00,weatherlink.com 1.10,2013-04-15 10:58:00,
2013-04-15 07:13:00,29.4,28.0,30.35,East,89,0.0,0.0,94,0.00,,,0.00,weatherlink.com 1.10,2013-04-15 11:13:00,
2013-04-15 07:28:00,30.2,29.0,30.36,East,89,0.0,0.0,94,0.00,,,0.00,weatherlink.com 1.10,2013-04-15 11:28:00,
2013-04-15 07:43:00,32.0,30.0,30.37,East,89,0.0,0.0,93,0.00,,,0.00,weatherlink.com 1.10,2013-04-15 11:43:00,
2013-04-15 07:58:00,34.2,31.0,30.37,East,89,0.0,0.0,87,0.00,,,0.00,weatherlink.com 1.10,2013-04-15 11:58:00,
2013-04-15 08:13:00,36.3,32.0,30.37,East,89,0.0,0.0,84,0.00,,,0.00,weatherlink.com 1.10,2013-04-15 12:13:00,
2013-04-15 08:28:00,38.6,33.0,30.38,SSW,205,0.0,2.0,81,0.00,,,0.00,weatherlink.com 1.10,2013-04-15 12:28:00,
2013-04-15 08:43:00,40.5,33.0,30.38,NW,326,0.0,1.0,74,0.00,,,0.00,weatherlink.com 1.10,2013-04-15 12:43:00,
2013-04-15 09:14:00,43.5,32.0,30.38,ENE,71,0.0,2.0,65,0.00,,,0.00,weatherlink.com 1.10,2013-04-15 13:14:00,
2013-04-15 09:29:00,45.0,33.0,30.38,WSW,242,2.0,2.0,62,0.00,,,0.00,weatherlink.com 1.10,2013-04-15 13:29:00,
2013-04-15 09:44:00,45.9,33.0,30.38,SE,131,2.0,5.0,60,0.00,,,0.00,weatherlink.com 1.10,2013-04-15 13:44:00,
2013-04-15 09:59:00,46.2,30.0,30.38,SW,215,2.0,6.0,54,0.00,,,0.00,weatherlink.com 1.10,2013-04-15 13:59:00,
2013-04-15 10:14:00,47.1,30.0,30.39,SSE,150,1.0,7.0,52,0.00,,,0.00,weatherlink.com 1.10,2013-04-15 14:14:00,
2013-04-15 10:29:00,46.7,30.0,30.38,West,280,1.0,4.0,53,0.00,,,0.00,weatherlink.com 1.10,2013-04-15 14:29:00,
2013-04-15 10:44:00,46.8,31.0,30.38,West,268,0.0,5.0,54,0.00,,,0.00,weatherlink.com 1.10,2013-04-15 14:44:00,
2013-04-15 10:59:00,47.2,31.0,30.38,SSE,163,1.0,6.0,53,0.00,,,0.00,weatherlink.com 1.10,2013-04-15 14:59:00,
2013-04-15 11:14:00,47.7,31.0,30.38,West,262,3.0,5.0,53,0.00,,,0.00,weatherlink.com 1.10,2013-04-15 15:14:00,
2013-04-15 11:29:00,47.8,31.0,30.38,SSE,158,3.0,5.0,52,0.00,,,0.00,weatherlink.com 1.10,2013-04-15 15:29:00,
2013-04-15 11:44:00,48.2,30.0,30.38,West,278,5.0,9.0,49,0.00,,,0.00,weatherlink.com 1.10,2013-04-15 15:44:00,
2013-04-15 11:59:00,49.9,31.0,30.38,West,274,1.0,6.0,48,0.00,,,0.00,weatherlink.com 1.10,2013-04-15 15:59:00,
2013-04-15 12:14:00,50.5,31.0,30.37,East,86,4.0,7.0,48,0.00,,,0.00,weatherlink.com 1.10,2013-04-15 16:14:00,
2013-04-15 12:29:00,51.7,31.0,30.36,SW,224,4.0,10.0,46,0.00,,,0.00,weatherlink.com 1.10,2013-04-15 16:29:00,
2013-04-15 12:44:00,53.2,33.0,30.35,SE,134,1.0,5.0,46,0.00,,,0.00,weatherlink.com 1.10,2013-04-15 16:44:00,
2013-04-15 12:59:00,52.6,31.0,30.35,West,278,1.0,8.0,44,0.00,,,0.00,weatherlink.com 1.10,2013-04-15 16:59:00,
2013-04-15 13:14:00,54.0,32.0,30.35,WSW,244,3.0,4.0,44,0.00,,,0.00,weatherlink.com 1.10,2013-04-15 17:14:00,
2013-04-15 13:29:00,54.2,32.0,30.35,SSW,197,1.0,7.0,43,0.00,,,0.00,weatherlink.com 1.10,2013-04-15 17:29:00,
2013-04-15 13:44:00,54.5,32.0,30.34,SE,145,4.0,8.0,43,0.00,,,0.00,weatherlink.com 1.10,2013-04-15 17:44:00,
2013-04-15 13:59:00,55.9,33.0,30.34,SSE,167,5.0,7.0,42,0.00,,,0.00,weatherlink.com 1.10,2013-04-15 17:59:00,
2013-04-15 14:14:00,55.3,34.0,30.34,SSE,163,2.0,9.0,44,0.00,,,0.00,weatherlink.com 1.10,2013-04-15 18:14:00,
2013-04-15 14:29:00,55.8,32.0,30.34,West,262,2.0,7.0,41,0.00,,,0.00,weatherlink.com 1.10,2013-04-15 18:29:00,
2013-04-15 14:44:00,56.2,33.0,30.34,SSE,159,5.0,8.0,41,0.00,,,0.00,weatherlink.com 1.10,2013-04-15 18:44:00,
2013-04-15 14:59:00,56.7,35.0,30.33,SSW,198,1.0,10.0,44,0.00,,,0.00,weatherlink.com 1.10,2013-04-15 18:59:00,
2013-04-15 15:14:00,57.5,34.0,30.32,SSW,210,3.0,7.0,41,0.00,,,0.00,weatherlink.com 1.10,2013-04-15 19:14:00,
2013-04-15 15:29:00,57.4,32.0,30.31,SSE,166,4.0,6.0,39,0.00,,,0.00,weatherlink.com 1.10,2013-04-15 19:29:00,
2013-04-15 15:44:00,58.0,34.0,30.30,SE,124,2.0,4.0,40,0.00,,,0.00,weatherlink.com 1.10,2013-04-15 19:44:00,
2013-04-15 16:00:00,58.3,33.0,30.30,SW,226,4.0,6.0,38,0.00,,,0.00,weatherlink.com 1.10,2013-04-15 20:00:00,
2013-04-15 16:15:00,58.5,33.0,30.30,SW,214,4.0,7.0,38,0.00,,,0.00,weatherlink.com 1.10,2013-04-15 20:15:00,
2013-04-15 16:31:00,57.9,33.0,30.29,WNW,283,1.0,7.0,39,0.00,,,0.00,weatherlink.com 1.10,2013-04-15 20:31:00,
2013-04-15 16:45:00,57.3,33.0,30.29,West,262,1.0,8.0,40,0.00,,,0.00,weatherlink.com 1.10,2013-04-15 20:45:00,
2013-04-15 17:00:00,57.3,33.0,30.30,SW,235,2.0,7.0,40,0.00,,,0.00,weatherlink.com 1.10,2013-04-15 21:00:00,
2013-04-15 17:15:00,57.0,33.0,30.30,South,176,4.0,8.0,40,0.00,,,0.00,weatherlink.com 1.10,2013-04-15 21:15:00,
2013-04-15 17:30:00,56.9,33.0,30.30,SW,214,4.0,6.0,41,0.00,,,0.00,weatherlink.com 1.10,2013-04-15 21:30:00,
2013-04-15 17:45:00,56.5,32.0,30.30,SW,225,2.0,7.0,40,0.00,,,0.00,weatherlink.com 1.10,2013-04-15 21:45:00,
2013-04-15 18:00:00,56.4,33.0,30.31,ESE,103,3.0,7.0,42,0.00,,,0.00,weatherlink.com 1.10,2013-04-15 22:00:00,
2013-04-15 18:15:00,55.1,36.0,30.30,SE,138,1.0,9.0,48,0.00,,,0.00,weatherlink.com 1.10,2013-04-15 22:15:00,
2013-04-15 18:30:00,53.0,35.0,30.32,ESE,120,4.0,7.0,51,0.00,,,0.00,weatherlink.com 1.10,2013-04-15 22:30:00,
2013-04-15 18:45:00,51.7,34.0,30.32,WSW,238,2.0,7.0,52,0.00,,,0.00,weatherlink.com 1.10,2013-04-15 22:45:00,
2013-04-15 19:00:00,50.4,34.0,30.34,ESE,103,2.0,5.0,54,0.00,,,0.00,weatherlink.com 1.10,2013-04-15 23:00:00,
2013-04-15 19:15:00,49.3,34.0,30.34,SSE,149,4.0,8.0,56,0.00,,,0.00,weatherlink.com 1.10,2013-04-15 23:15:00,
2013-04-15 19:30:00,48.2,34.0,30.35,SW,224,1.0,4.0,58,0.00,,,0.00,weatherlink.com 1.10,2013-04-15 23:30:00,
2013-04-15 19:45:00,47.4,34.0,30.36,WSW,245,3.0,9.0,60,0.00,,,0.00,weatherlink.com 1.10,2013-04-15 23:45:00,
2013-04-15 20:00:00,46.5,34.0,30.35,SE,129,1.0,5.0,62,0.00,,,0.00,weatherlink.com 1.10,2013-04-16 00:00:00,
2013-04-15 20:15:00,46.0,34.0,30.35,SSE,150,1.0,3.0,63,0.00,,,0.00,weatherlink.com 1.10,2013-04-16 00:15:00,
2013-04-15 20:30:00,45.5,33.0,30.36,South,185,3.0,6.0,63,0.00,,,0.00,weatherlink.com 1.10,2013-04-16 00:30:00,
2013-04-15 20:45:00,45.1,33.0,30.37,SSW,212,0.0,4.0,64,0.00,,,0.00,weatherlink.com 1.10,2013-04-16 00:45:00,
2013-04-15 21:00:00,44.5,34.0,30.37,WSW,240,0.0,2.0,68,0.00,,,0.00,weatherlink.com 1.10,2013-04-16 01:00:00,
2013-04-15 21:14:00,44.1,35.0,30.37,SW,233,1.0,3.0,70,0.00,,,0.00,weatherlink.com 1.10,2013-04-16 01:14:00,
2013-04-15 21:29:00,43.8,35.0,30.37,South,171,0.0,4.0,72,0.00,,,0.00,weatherlink.com 1.10,2013-04-16 01:29:00,
2013-04-15 21:44:00,43.5,35.0,30.37,SSE,163,0.0,4.0,73,0.00,,,0.00,weatherlink.com 1.10,2013-04-16 01:44:00,
2013-04-15 21:59:00,43.1,36.0,30.38,SSW,202,1.0,4.0,75,0.00,,,0.00,weatherlink.com 1.10,2013-04-16 01:59:00,
2013-04-15 22:14:00,42.9,36.0,30.37,East,101,0.0,5.0,76,0.00,,,0.00,weatherlink.com 1.10,2013-04-16 02:14:00,
2013-04-15 22:29:00,42.7,36.0,30.37,East,99,1.0,5.0,76,0.00,,,0.00,weatherlink.com 1.10,2013-04-16 02:29:00,
2013-04-15 22:44:00,42.3,36.0,30.37,SSW,197,2.0,4.0,78,0.00,,,0.00,weatherlink.com 1.10,2013-04-16 02:44:00,
2013-04-15 22:59:00,41.9,36.0,30.37,WNW,283,0.0,1.0,78,0.00,,,0.00,weatherlink.com 1.10,2013-04-16 02:59:00,
2013-04-15 23:14:00,41.2,36.0,30.37,SSE,158,1.0,2.0,80,0.00,,,0.00,weatherlink.com 1.10,2013-04-16 03:14:00,
2013-04-15 23:29:00,40.6,36.0,30.37,South,187,0.0,2.0,82,0.00,,,0.00,weatherlink.com 1.10,2013-04-16 03:29:00,
2013-04-15 23:44:00,40.9,36.0,30.38,SSE,166,1.0,3.0,81,0.00,,,0.00,weatherlink.com 1.10,2013-04-16 03:44:00,
2013-04-15 23:59:00,41.3,36.0,30.38,SSW,198,0.0,5.0,80,0.00,,,0.00,weatherlink.com 1.10,2013-04-16 03:59:00,